createdAt,value
2018-11-12T00:02:06.468Z,2.70
2018-11-12T00:04:38.536Z,3.00
2018-11-12T00:07:10.779Z,2.93
2018-11-12T00:09:42.706Z,3.30
2018-11-12T00:12:14.834Z,2.87
2018-11-12T00:14:47.325Z,2.70
2018-11-12T00:17:19.671Z,2.80
2018-11-12T00:19:51.647Z,3.70
2018-11-12T00:22:23.781Z,3.30
2018-11-12T00:24:56.094Z,3.53
2018-11-12T00:27:28.183Z,2.90
2018-11-12T00:30:00.741Z,3.30
2018-11-12T00:32:32.870Z,3.43
2018-11-12T00:35:05.177Z,6.27
2018-11-12T00:37:37.669Z,7.07
2018-11-12T00:40:12.460Z,4.40
2018-11-12T00:42:45.081Z,3.80
2018-11-12T00:45:17.819Z,4.40
2018-11-12T00:47:51.287Z,3.57
2018-11-12T00:50:24.053Z,4.40
2018-11-12T00:52:56.216Z,3.80
2018-11-12T00:55:28.646Z,6.00
2018-11-12T00:58:01.393Z,4.40
2018-11-12T01:00:33.812Z,5.50
2018-11-12T01:03:06.357Z,7.20
2018-11-12T01:05:38.501Z,8.80
2018-11-12T01:08:10.841Z,8.77
2018-11-12T01:10:43.098Z,6.90
2018-11-12T01:13:15.855Z,4.57
2018-11-12T01:15:48.166Z,5.07
2018-11-12T01:18:20.775Z,4.87
2018-11-12T01:20:52.969Z,4.10
2018-11-12T01:23:25.114Z,4.10
2018-11-12T01:25:57.715Z,10.27
2018-11-12T01:28:30.188Z,11.67
2018-11-12T01:31:05.002Z,12.40
2018-11-12T01:33:38.715Z,16.67
2018-11-12T01:36:11.086Z,25.00
2018-11-12T01:38:43.038Z,15.30
2018-11-12T01:41:15.184Z,7.27
2018-11-12T01:43:47.540Z,7.80
2018-11-12T01:46:19.850Z,6.27
2018-11-12T01:48:52.433Z,6.70
2018-11-12T01:51:24.892Z,5.60
2018-11-12T01:53:57.316Z,7.40
2018-11-12T01:56:29.669Z,6.37
2018-11-12T01:59:01.616Z,7.33
2018-11-12T02:01:33.860Z,7.30
2018-11-12T02:04:07.173Z,5.87
2018-11-12T02:06:39.368Z,6.90
2018-11-12T02:09:14.018Z,5.90
2018-11-12T02:11:46.371Z,6.07
2018-11-12T02:14:18.934Z,5.27
2018-11-12T02:16:50.700Z,5.70
2018-11-12T02:19:22.647Z,5.87
2018-11-12T02:21:55.200Z,5.60
2018-11-12T02:24:27.436Z,5.97
2018-11-12T02:26:59.816Z,6.50
2018-11-12T02:29:32.156Z,6.07
2018-11-12T02:32:05.055Z,5.10
2018-11-12T02:34:37.356Z,6.40
2018-11-12T02:37:09.094Z,6.10
2018-11-12T02:39:41.267Z,5.40
2018-11-12T02:42:13.572Z,5.27
2018-11-12T02:44:47.055Z,4.60
2018-11-12T02:47:20.329Z,5.87
2018-11-12T02:49:54.101Z,5.70
2018-11-12T02:52:26.548Z,5.00
2018-11-12T02:54:59.393Z,5.67
2018-11-12T02:57:31.309Z,5.23
2018-11-12T03:00:04.098Z,5.30
2018-11-12T03:02:36.840Z,5.30
2018-11-12T03:05:10.041Z,5.23
2018-11-12T03:07:42.439Z,5.00
2018-11-12T03:10:16.715Z,3.97
2018-11-12T03:12:48.933Z,4.67
2018-11-12T03:15:21.463Z,4.73
2018-11-12T03:17:53.585Z,5.37
2018-11-12T03:20:25.990Z,4.97
2018-11-12T03:22:58.426Z,4.73
2018-11-12T03:25:30.748Z,4.90
2018-11-12T03:28:02.874Z,5.90
2018-11-12T03:30:36.277Z,4.80
2018-11-12T03:33:08.883Z,6.10
2018-11-12T03:35:41.054Z,5.75
2018-11-12T03:38:12.819Z,5.80
2018-11-12T03:40:45.165Z,5.45
2018-11-12T03:43:17.341Z,6.05
2018-11-12T03:45:49.393Z,6.00
2018-11-12T03:48:21.965Z,5.70
2018-11-12T03:50:54.568Z,5.72
2018-11-12T03:53:26.704Z,5.80
2018-11-12T03:55:58.551Z,5.37
2018-11-12T03:58:30.502Z,5.22
2018-11-12T04:01:02.854Z,5.55
2018-11-12T04:03:34.752Z,6.17
2018-11-12T04:06:07.343Z,6.08
2018-11-12T04:08:39.713Z,4.97
2018-11-12T04:11:12.087Z,6.55
2018-11-12T04:13:45.095Z,4.95
2018-11-12T04:16:16.849Z,6.25
2018-11-12T04:18:48.657Z,5.70
2018-11-12T04:21:20.407Z,6.37
2018-11-12T04:23:52.394Z,5.83
2018-11-12T04:26:25.030Z,5.45
2018-11-12T04:28:57.230Z,5.95
2018-11-12T04:31:29.321Z,5.60
2018-11-12T04:34:01.644Z,5.90
2018-11-12T04:36:33.376Z,6.75
2018-11-12T04:39:05.595Z,6.40
2018-11-12T04:41:37.354Z,6.15
2018-11-12T04:44:09.973Z,6.67
2018-11-12T04:46:42.360Z,5.90
2018-11-12T04:49:14.876Z,6.60
2018-11-12T04:51:47.240Z,7.80
2018-11-12T04:54:20.080Z,7.03
2018-11-12T04:56:52.165Z,6.95
2018-11-12T04:59:24.885Z,6.37
2018-11-12T05:01:57.352Z,7.05
2018-11-12T05:04:29.480Z,6.83
2018-11-12T05:07:01.582Z,6.65
2018-11-12T05:09:34.240Z,7.17
2018-11-12T05:12:06.756Z,7.28
2018-11-12T05:14:38.489Z,7.90
2018-11-12T05:17:10.270Z,8.85
2018-11-12T05:19:42.724Z,8.13
2018-11-12T05:22:15.233Z,7.92
2018-11-12T05:24:47.612Z,7.78
2018-11-12T05:27:20.037Z,7.92
2018-11-12T05:29:53.634Z,8.63
2018-11-12T05:32:25.916Z,8.68
2018-11-12T05:34:57.697Z,9.08
2018-11-12T05:37:29.480Z,8.55
2018-11-12T05:40:01.675Z,8.15
2018-11-12T05:42:34.296Z,7.62
2018-11-12T05:45:06.893Z,8.90
2018-11-12T05:47:39.844Z,8.80
2018-11-12T05:50:15.414Z,8.35
2018-11-12T05:52:49.505Z,9.13
2018-11-12T05:55:23.205Z,8.20
2018-11-12T05:57:55.579Z,9.45
2018-11-12T06:00:35.155Z,9.70
2018-11-12T06:03:07.751Z,8.88
2018-11-12T06:05:40.302Z,9.20
2018-11-12T06:08:12.725Z,9.75
2018-11-12T06:10:45.148Z,9.73
2018-11-12T06:13:17.626Z,9.38
2018-11-12T06:15:49.970Z,10.08
2018-11-12T06:18:22.222Z,9.43
2018-11-12T06:20:54.679Z,10.05
2018-11-12T06:23:26.962Z,9.85
2018-11-12T06:25:59.116Z,9.43
2018-11-12T06:28:31.405Z,10.13
2018-11-12T06:31:03.838Z,9.80
2018-11-12T06:33:36.154Z,10.20
2018-11-12T06:36:08.475Z,9.53
2018-11-12T06:38:40.899Z,10.60
2018-11-12T06:41:13.335Z,9.65
2018-11-12T06:43:45.617Z,9.23
2018-11-12T06:46:18.082Z,9.35
2018-11-12T06:48:50.673Z,9.28
2018-11-12T06:51:23.349Z,8.68
2018-11-12T06:53:55.765Z,10.08
2018-11-12T06:56:28.282Z,9.30
2018-11-12T06:59:00.513Z,9.30
2018-11-12T07:01:33.027Z,9.23
2018-11-12T07:04:05.572Z,9.60
2018-11-12T07:06:38.185Z,9.03
2018-11-12T07:09:13.730Z,8.80
2018-11-12T07:11:47.248Z,10.00
2018-11-12T07:14:19.812Z,8.70
2018-11-12T07:16:52.148Z,8.30
2018-11-12T07:19:24.455Z,9.08
2018-11-12T07:21:56.853Z,8.50
2018-11-12T07:24:29.499Z,8.90
2018-11-12T07:27:01.939Z,8.95
2018-11-12T07:29:34.281Z,8.10
2018-11-12T07:32:06.803Z,8.15
2018-11-12T07:34:39.117Z,8.05
2018-11-12T07:37:11.487Z,8.73
2018-11-12T07:39:43.940Z,8.80
2018-11-12T07:42:16.218Z,8.08
2018-11-12T07:44:48.847Z,8.00
2018-11-12T07:47:21.346Z,8.70
2018-11-12T07:49:53.670Z,8.70
2018-11-12T07:52:25.861Z,7.95
2018-11-12T07:54:58.590Z,8.15
2018-11-12T07:57:31.571Z,8.75
2018-11-12T08:00:04.176Z,8.30
2018-11-12T08:02:36.431Z,8.60
2018-11-12T08:05:09.454Z,7.65
2018-11-12T08:07:41.521Z,7.47
2018-11-12T08:10:16.827Z,8.00
2018-11-12T08:12:49.343Z,9.05
2018-11-12T08:15:22.249Z,9.20
2018-11-12T08:17:54.599Z,9.70
2018-11-12T08:20:27.917Z,8.83
2018-11-12T08:23:00.473Z,9.18
2018-11-12T08:25:32.552Z,9.80
2018-11-12T08:28:05.009Z,9.08
2018-11-12T08:30:37.482Z,9.85
2018-11-12T08:33:09.794Z,7.45
2018-11-12T08:35:42.149Z,9.58
2018-11-12T08:38:14.222Z,9.33
2018-11-12T08:40:47.169Z,9.18
2018-11-12T08:43:19.625Z,10.48
2018-11-12T08:45:52.009Z,9.83
2018-11-12T08:48:24.503Z,8.80
2018-11-12T08:50:57.286Z,8.93
2018-11-12T08:53:30.443Z,9.45
2018-11-12T08:56:02.956Z,9.68
2018-11-12T08:58:35.882Z,9.28
2018-11-12T09:01:08.384Z,10.15
2018-11-12T09:03:40.854Z,7.70
2018-11-12T09:06:13.397Z,9.65
2018-11-12T09:08:45.662Z,10.68
2018-11-12T09:11:17.971Z,10.43
2018-11-12T09:13:50.253Z,10.13
2018-11-12T09:16:22.496Z,10.08
2018-11-12T09:18:54.824Z,10.03
2018-11-12T09:21:27.607Z,10.70
2018-11-12T09:24:00.442Z,10.82
2018-11-12T09:26:32.754Z,8.75
2018-11-12T09:29:05.197Z,11.10
2018-11-12T09:31:37.566Z,10.88
2018-11-12T09:34:09.944Z,9.85
2018-11-12T09:36:42.426Z,10.32
2018-11-12T09:39:14.818Z,9.98
2018-11-12T09:41:47.533Z,10.15
2018-11-12T09:44:20.287Z,11.38
2018-11-12T09:46:52.959Z,10.13
2018-11-12T09:49:25.386Z,10.53
2018-11-12T09:51:57.626Z,9.38
2018-11-12T09:54:30.389Z,9.78
2018-11-12T09:57:02.574Z,9.75
2018-11-12T09:59:35.124Z,8.85
2018-11-12T10:02:08.190Z,9.48
2018-11-12T10:04:42.260Z,9.25
2018-11-12T10:07:15.271Z,9.63
2018-11-12T10:09:48.692Z,9.58
2018-11-12T10:12:21.385Z,10.10
2018-11-12T10:14:54.848Z,9.20
2018-11-12T10:17:27.194Z,8.80
2018-11-12T10:19:57.576Z,8.93
2018-11-12T10:22:29.761Z,7.97
2018-11-12T10:25:02.107Z,8.90
2018-11-12T10:27:34.539Z,7.75
2018-11-12T10:30:07.567Z,8.90
2018-11-12T10:32:40.170Z,8.83
2018-11-12T10:35:12.717Z,7.83
2018-11-12T10:37:44.813Z,8.58
2018-11-12T10:40:19.804Z,8.88
2018-11-12T10:42:52.707Z,9.13
2018-11-12T10:45:25.210Z,8.58
2018-11-12T10:47:57.536Z,8.40
2018-11-12T10:50:29.970Z,8.15
2018-11-12T10:53:02.331Z,7.55
2018-11-12T11:02:32.114Z,8.45
2018-11-12T11:05:04.584Z,8.33
2018-11-12T11:07:37.156Z,7.37
2018-11-12T11:10:09.819Z,9.23
2018-11-12T11:12:42.343Z,9.13
2018-11-12T11:15:15.381Z,9.68
2018-11-12T11:17:48.398Z,8.48
2018-11-12T11:20:20.638Z,8.55
2018-11-12T11:22:53.282Z,9.63
2018-11-12T11:25:25.890Z,8.53
2018-11-12T11:27:58.290Z,7.90
2018-11-12T11:30:30.572Z,9.00
2018-11-12T11:33:03.399Z,9.05
2018-11-12T11:35:35.989Z,7.62
2018-11-12T11:38:08.332Z,8.28
2018-11-12T11:40:40.824Z,8.70
2018-11-12T11:43:13.223Z,9.03
2018-11-12T11:45:45.730Z,8.23
2018-11-12T11:48:18.255Z,9.00
2018-11-12T11:50:50.636Z,9.58
2018-11-12T11:53:23.522Z,9.18
2018-11-12T11:55:56.004Z,8.43
2018-11-12T11:58:28.110Z,8.85
2018-11-12T12:01:00.638Z,9.75
2018-11-12T12:03:32.968Z,7.50
2018-11-12T12:06:05.433Z,7.83
2018-11-12T12:08:37.739Z,9.85
2018-11-12T12:11:10.089Z,9.00
2018-11-12T12:13:42.530Z,8.75
2018-11-12T12:16:15.064Z,9.80
2018-11-12T12:18:47.198Z,9.80
2018-11-12T12:21:19.808Z,10.00
2018-11-12T12:23:51.848Z,9.60
2018-11-12T12:26:24.340Z,8.58
2018-11-12T12:28:56.664Z,9.43
2018-11-12T12:31:29.072Z,9.48
2018-11-12T12:34:01.722Z,8.55
2018-11-12T12:36:34.486Z,8.43
2018-11-12T12:39:09.482Z,9.75
2018-11-12T12:41:42.192Z,10.25
2018-11-12T12:44:14.930Z,9.35
2018-11-12T12:46:47.648Z,10.15
2018-11-12T12:49:20.443Z,9.80
2018-11-12T12:51:52.900Z,8.63
2018-11-12T12:54:25.318Z,10.25
2018-11-12T12:56:58.086Z,9.30
2018-11-12T12:59:30.578Z,9.85
2018-11-12T13:02:03.100Z,8.45
2018-11-12T13:04:35.749Z,9.35
2018-11-12T13:07:08.052Z,9.80
2018-11-12T13:09:40.434Z,7.97
2018-11-12T13:12:12.644Z,9.10
2018-11-12T13:14:45.149Z,8.90
2018-11-12T13:17:17.490Z,8.70
2018-11-12T13:19:49.787Z,9.23
2018-11-12T13:22:22.126Z,8.90
2018-11-12T13:24:54.319Z,8.48
2018-11-12T13:27:26.849Z,8.50
2018-11-12T13:29:59.542Z,8.70
2018-11-12T13:32:33.322Z,10.00
2018-11-12T13:35:05.598Z,9.45
2018-11-12T13:37:38.100Z,8.65
2018-11-12T13:40:14.340Z,7.70
2018-11-12T13:42:47.973Z,9.00
2018-11-12T13:45:20.640Z,9.28
2018-11-12T13:47:52.726Z,8.75
2018-11-12T13:50:26.510Z,8.80
2018-11-12T13:52:59.626Z,8.30
2018-11-12T13:55:32.145Z,7.60
2018-11-12T13:58:04.497Z,8.65
2018-11-12T14:00:37.096Z,8.38
2018-11-12T14:03:09.282Z,9.60
2018-11-12T14:05:42.298Z,8.95
2018-11-12T14:08:15.008Z,8.58
2018-11-12T14:10:47.360Z,8.55
2018-11-12T14:13:20.018Z,8.70
2018-11-12T14:15:52.461Z,9.65
2018-11-12T14:18:24.643Z,6.45
2018-11-12T14:20:56.972Z,7.90
2018-11-12T14:23:29.443Z,8.43
2018-11-12T14:26:02.089Z,10.10
2018-11-12T14:28:34.542Z,8.15
2018-11-12T14:31:07.122Z,9.23
2018-11-12T14:33:39.390Z,8.70
2018-11-12T14:36:12.052Z,8.45
2018-11-12T14:38:44.720Z,8.00
2018-11-12T14:41:17.227Z,8.48
2018-11-12T14:43:49.703Z,8.73
2018-11-12T14:46:22.499Z,8.23
2018-11-12T14:48:55.350Z,7.50
2018-11-12T14:51:27.769Z,9.45
2018-11-12T14:54:00.651Z,8.38
2018-11-12T14:56:33.034Z,9.45
2018-11-12T14:59:05.393Z,8.78
2018-11-12T15:01:37.968Z,8.58
2018-11-12T15:04:10.656Z,8.65
2018-11-12T15:06:43.197Z,8.95
2018-11-12T15:09:15.649Z,7.90
2018-11-12T15:11:47.989Z,9.10
2018-11-12T15:14:20.373Z,6.92
2018-11-12T15:16:52.838Z,9.68
2018-11-12T15:19:24.942Z,9.03
2018-11-12T15:21:57.704Z,8.75
2018-11-12T15:24:30.047Z,9.55
2018-11-12T15:27:02.297Z,9.53
2018-11-12T15:29:34.910Z,8.80
2018-11-12T15:32:07.420Z,9.28
2018-11-12T15:34:39.855Z,9.85
2018-11-12T15:37:12.586Z,7.80
2018-11-12T15:39:46.296Z,9.18
2018-11-12T15:42:18.848Z,8.98
2018-11-12T15:44:51.620Z,8.03
2018-11-12T15:47:25.476Z,7.70
2018-11-12T15:49:57.831Z,8.68
2018-11-12T15:52:30.254Z,8.98
2018-11-12T15:55:02.471Z,8.45
2018-11-12T15:57:35.156Z,10.30
2018-11-12T16:00:08.391Z,8.33
2018-11-12T16:02:41.754Z,7.17
2018-11-12T16:05:14.786Z,9.50
2018-11-12T16:07:47.334Z,9.13
2018-11-12T16:10:22.073Z,9.53
2018-11-12T16:12:54.714Z,8.65
2018-11-12T16:15:27.528Z,9.28
2018-11-12T16:17:59.958Z,7.90
2018-11-12T16:20:32.321Z,8.73
2018-11-12T16:23:04.849Z,8.40
2018-11-12T16:25:36.983Z,9.75
2018-11-12T16:28:09.616Z,9.48
2018-11-12T16:30:42.006Z,8.40
2018-11-12T16:33:14.662Z,7.03
2018-11-12T16:35:47.042Z,8.55
2018-11-12T16:38:19.546Z,8.08
2018-11-12T16:40:52.184Z,7.60
2018-11-12T16:43:24.822Z,9.05
2018-11-12T16:45:57.156Z,9.55
2018-11-12T16:48:29.709Z,8.30
2018-11-12T16:51:02.045Z,9.20
2018-11-12T16:53:34.666Z,7.58
2018-11-12T16:56:07.116Z,9.08
2018-11-12T16:58:39.660Z,8.78
2018-11-12T17:01:12.087Z,9.03
2018-11-12T17:03:44.527Z,8.28
2018-11-12T17:06:16.686Z,9.65
2018-11-12T17:08:49.224Z,8.60
2018-11-12T17:11:21.859Z,9.18
2018-11-12T17:13:54.045Z,9.05
2018-11-12T17:16:26.514Z,9.15
2018-11-12T17:18:58.918Z,8.85
2018-11-12T17:21:32.173Z,8.60
2018-11-12T17:24:04.707Z,10.75
2018-11-12T17:26:36.813Z,8.98
2018-11-12T17:29:09.386Z,9.53
2018-11-12T17:31:41.708Z,8.33
2018-11-12T17:34:14.092Z,8.03
2018-11-12T17:36:46.520Z,8.43
2018-11-12T17:39:18.847Z,8.93
2018-11-12T17:41:51.081Z,8.60
2018-11-12T17:44:23.312Z,8.40
2018-11-12T17:46:55.910Z,8.28
2018-11-12T17:49:28.296Z,8.53
2018-11-12T17:52:00.906Z,8.93
2018-11-12T17:54:33.273Z,9.70
2018-11-12T17:57:05.475Z,9.90
2018-11-12T17:59:37.671Z,8.63
2018-11-12T18:02:10.256Z,8.13
2018-11-12T18:04:42.630Z,8.80
2018-11-12T18:07:15.185Z,10.10
2018-11-12T18:09:47.633Z,8.90
2018-11-12T18:12:20.336Z,9.00
2018-11-12T18:14:52.705Z,8.68
2018-11-12T18:17:25.127Z,7.80
2018-11-12T18:19:57.466Z,7.97
2018-11-12T18:22:30.015Z,9.53
2018-11-12T18:25:02.231Z,9.10
2018-11-12T18:27:34.614Z,8.08
2018-11-12T18:30:07.930Z,7.95
2018-11-12T18:32:40.308Z,8.98
2018-11-12T18:35:12.674Z,8.98
2018-11-12T18:37:44.822Z,8.00
2018-11-12T18:40:18.341Z,8.48
2018-11-12T18:42:50.895Z,7.90
2018-11-12T18:45:24.358Z,8.53
2018-11-12T18:47:56.657Z,8.90
2018-11-12T18:50:30.242Z,8.70
2018-11-12T18:53:02.551Z,8.70
2018-11-12T18:55:34.727Z,8.60
2018-11-12T18:58:07.249Z,10.18
2018-11-12T19:00:39.291Z,8.60
2018-11-12T19:03:11.839Z,9.75
2018-11-12T19:05:44.265Z,8.90
2018-11-12T19:08:16.416Z,8.33
2018-11-12T19:10:48.485Z,7.57
2018-11-12T19:13:21.176Z,9.03
2018-11-12T19:15:53.571Z,8.50
2018-11-12T19:18:25.958Z,8.30
2018-11-12T19:20:58.535Z,8.98
2018-11-12T19:23:31.189Z,9.60
2018-11-12T19:26:03.518Z,7.53
2018-11-12T19:28:36.053Z,8.70
2018-11-12T19:31:08.080Z,8.47
2018-11-12T19:33:40.619Z,8.27
2018-11-12T19:36:13.110Z,9.60
2018-11-12T19:38:45.529Z,8.90
2018-11-12T19:41:17.512Z,8.73
2018-11-12T19:43:49.874Z,8.77
2018-11-12T19:46:22.273Z,8.73
2018-11-12T19:48:54.726Z,9.10
2018-11-12T19:51:27.367Z,8.40
2018-11-12T19:53:59.597Z,8.10
2018-11-12T19:56:32.725Z,8.47
2018-11-12T19:59:05.018Z,8.23
2018-11-12T20:01:37.136Z,7.92
2018-11-12T20:04:09.653Z,10.32
2018-11-12T20:06:41.842Z,8.80
2018-11-12T20:09:14.276Z,8.75
2018-11-12T20:11:46.576Z,8.93
2018-11-12T20:14:23.555Z,8.33
2018-11-12T20:16:55.796Z,8.08
2018-11-12T20:19:27.983Z,9.28
2018-11-12T20:21:59.984Z,9.23
2018-11-12T20:24:32.277Z,9.45
2018-11-12T20:27:04.602Z,8.95
2018-11-12T20:29:36.892Z,9.80
2018-11-12T20:32:09.225Z,10.15
2018-11-12T20:34:41.257Z,8.58
2018-11-12T20:37:13.699Z,9.33
2018-11-12T20:39:46.027Z,8.18
2018-11-12T20:42:17.988Z,8.68
2018-11-12T20:44:49.756Z,8.70
2018-11-12T20:47:22.006Z,8.78
2018-11-12T20:49:54.260Z,9.38
2018-11-12T20:52:26.328Z,9.08
2018-11-12T20:54:58.805Z,10.75
2018-11-12T20:57:30.907Z,10.00
2018-11-12T21:00:03.218Z,8.90
2018-11-12T21:02:35.697Z,9.08
2018-11-12T21:05:08.696Z,9.08
2018-11-12T21:07:41.328Z,8.58
2018-11-12T21:10:17.310Z,9.98
2018-11-12T21:12:50.189Z,8.40
2018-11-12T21:15:29.018Z,8.53
2018-11-12T21:18:01.053Z,8.40
2018-11-12T21:20:33.453Z,8.93
2018-11-12T21:23:05.838Z,9.35
2018-11-12T21:25:38.139Z,8.98
2018-11-12T21:28:10.742Z,8.98
2018-11-12T21:30:42.930Z,8.68
2018-11-12T21:33:15.321Z,9.35
2018-11-12T21:35:47.653Z,8.13
2018-11-12T21:38:20.109Z,8.85
2018-11-12T21:40:52.898Z,10.48
2018-11-12T21:43:25.485Z,9.35
2018-11-12T21:45:58.084Z,9.20
2018-11-12T21:48:30.608Z,9.30
2018-11-12T21:51:02.958Z,8.15
2018-11-12T21:53:35.474Z,8.90
2018-11-12T21:56:07.853Z,9.23
2018-11-12T21:58:40.525Z,9.58
2018-11-12T22:01:12.910Z,9.20
2018-11-12T22:03:45.284Z,8.85
2018-11-12T22:06:17.518Z,9.53
2018-11-12T22:08:49.951Z,9.15
2018-11-12T22:11:22.424Z,9.03
2018-11-12T22:13:54.544Z,10.40
2018-11-12T22:16:27.382Z,9.10
2018-11-12T22:18:59.769Z,9.35
2018-11-12T22:21:32.195Z,10.03
2018-11-12T22:24:04.706Z,8.53
2018-11-12T22:26:37.027Z,10.20
2018-11-12T22:29:09.840Z,10.20
2018-11-12T22:31:41.940Z,8.35
2018-11-12T22:34:14.333Z,9.85
2018-11-12T22:36:47.291Z,9.03
2018-11-12T22:39:19.740Z,8.68
2018-11-12T22:41:52.330Z,8.35
2018-11-12T22:44:24.864Z,10.55
2018-11-12T22:46:57.070Z,9.25
2018-11-12T22:49:29.430Z,9.93
2018-11-12T22:52:02.058Z,8.65
2018-11-12T22:54:34.404Z,8.70
2018-11-12T22:57:06.971Z,9.68
2018-11-12T22:59:39.337Z,8.53
2018-11-12T23:02:11.633Z,9.50
2018-11-12T23:04:44.033Z,10.03
2018-11-12T23:07:16.406Z,8.73
2018-11-12T23:09:49.023Z,9.60
2018-11-12T23:12:21.471Z,9.00
2018-11-12T23:14:53.625Z,9.50
2018-11-12T23:17:26.024Z,8.18
2018-11-12T23:19:58.370Z,9.00
2018-11-12T23:22:30.769Z,10.10
2018-11-12T23:25:02.947Z,8.65
2018-11-12T23:27:35.454Z,9.53
2018-11-12T23:30:08.699Z,8.95
2018-11-12T23:32:41.228Z,7.90
2018-11-12T23:35:15.192Z,8.85
2018-11-12T23:37:47.882Z,9.83
2018-11-12T23:40:20.090Z,8.88
2018-11-12T23:42:52.627Z,7.65
2018-11-12T23:45:24.863Z,9.43
2018-11-12T23:47:57.292Z,8.85
2018-11-12T23:50:29.719Z,9.13
2018-11-12T23:53:02.319Z,8.43
2018-11-12T23:55:34.895Z,8.15
2018-11-12T23:58:07.245Z,7.72
